createdAt,value
2023-02-08T04:46:44.808Z,522.33
2023-02-08T04:49:11.482Z,525.95
2023-02-08T04:51:38.258Z,528.00
2023-02-08T04:54:05.056Z,531.90
2023-02-08T04:56:31.799Z,528.20
2023-02-08T04:58:59.093Z,528.43
2023-02-08T05:01:25.750Z,529.85
2023-02-08T05:03:52.403Z,530.22
2023-02-08T05:06:19.083Z,531.65
2023-02-08T05:08:45.731Z,527.95
2023-02-08T05:11:12.461Z,529.40
2023-02-08T05:13:39.127Z,524.80
2023-02-08T05:16:05.962Z,527.92
2023-02-08T05:18:32.610Z,532.13
2023-02-08T05:21:00.947Z,526.90
2023-02-08T05:23:28.159Z,530.28
2023-02-08T05:25:54.782Z,533.97
2023-02-08T05:28:21.694Z,525.17
2023-02-08T05:30:48.513Z,524.97
2023-02-08T05:33:15.432Z,520.07
2023-02-08T05:35:42.123Z,521.00
2023-02-08T05:38:08.765Z,520.78
2023-02-08T05:40:36.622Z,524.33
2023-02-08T05:43:03.463Z,527.75
2023-02-08T05:45:30.067Z,521.73
2023-02-08T05:47:56.712Z,527.45
2023-02-08T05:50:23.323Z,529.38
2023-02-08T05:52:49.955Z,532.35
2023-02-08T05:55:17.418Z,526.88
2023-02-08T05:57:44.263Z,526.20
2023-02-08T06:00:11.528Z,527.42
2023-02-08T06:02:38.236Z,527.50
2023-02-08T06:05:05.066Z,525.13
2023-02-08T06:07:31.741Z,531.07
2023-02-08T06:09:58.387Z,530.00
2023-02-08T06:12:25.042Z,532.37
2023-02-08T06:14:51.662Z,529.72
2023-02-08T06:17:18.337Z,533.55
2023-02-08T06:19:44.925Z,535.22
2023-02-08T06:22:11.601Z,533.75
2023-02-08T06:24:38.183Z,535.03
2023-02-08T06:27:04.793Z,532.78
2023-02-08T06:29:31.680Z,536.30
2023-02-08T06:31:58.430Z,539.53
2023-02-08T06:34:25.084Z,538.45
2023-02-08T06:36:51.750Z,538.57
2023-02-08T06:39:18.366Z,539.55
2023-02-08T06:41:44.973Z,536.60
2023-02-08T06:44:11.636Z,537.15
2023-02-08T06:46:38.278Z,540.10
2023-02-08T06:49:04.904Z,539.92
2023-02-08T06:51:31.498Z,541.53
2023-02-08T06:53:58.101Z,536.90
2023-02-08T06:56:24.796Z,537.75
2023-02-08T06:58:51.387Z,544.10
2023-02-08T07:01:18.098Z,538.05
2023-02-08T07:03:44.764Z,537.17
2023-02-08T07:06:16.729Z,543.50
2023-02-08T07:08:43.768Z,542.60
2023-02-08T07:11:13.125Z,540.42
2023-02-08T07:13:40.068Z,531.78
2023-02-08T07:16:08.188Z,542.97
2023-02-08T07:18:35.288Z,546.20
2023-02-08T07:21:02.021Z,542.87
2023-02-08T07:23:29.011Z,544.25
2023-02-08T07:26:07.778Z,542.63
2023-02-08T07:28:34.901Z,544.57
2023-02-08T07:31:05.962Z,545.50
2023-02-08T07:33:32.650Z,540.38
2023-02-08T07:35:59.282Z,540.60
2023-02-08T07:38:25.896Z,545.88
2023-02-08T07:40:52.571Z,543.38
2023-02-08T07:43:19.216Z,553.72
2023-02-08T07:45:45.917Z,560.27
2023-02-08T07:48:12.555Z,567.15
2023-02-08T07:50:39.422Z,574.05
2023-02-08T07:53:06.243Z,572.65
2023-02-08T07:55:32.920Z,579.33
2023-02-08T07:57:59.581Z,629.50
2023-02-08T08:00:27.012Z,643.58
2023-02-08T08:02:54.233Z,679.17
2023-02-08T08:05:21.615Z,703.65
2023-02-08T08:07:48.193Z,717.25
2023-02-08T08:10:14.978Z,747.38
2023-02-08T08:12:41.650Z,788.03
2023-02-08T08:15:08.481Z,805.60
2023-02-08T08:17:35.135Z,832.38
2023-02-08T08:20:01.836Z,849.08
2023-02-08T08:22:28.501Z,858.53
2023-02-08T08:24:55.314Z,865.70
2023-02-08T08:27:21.986Z,857.10
2023-02-08T08:29:48.698Z,852.63
2023-02-08T08:32:15.356Z,838.50
2023-02-08T08:34:42.129Z,848.40
2023-02-08T08:37:09.777Z,838.38
2023-02-08T08:39:37.077Z,856.35
2023-02-08T08:42:04.132Z,863.67
2023-02-08T08:44:31.260Z,858.45
2023-02-08T08:46:59.460Z,861.83
2023-02-08T08:49:29.582Z,845.53
2023-02-08T08:51:56.666Z,841.17
2023-02-08T08:54:23.674Z,848.95
2023-02-08T08:56:50.350Z,871.30
2023-02-08T08:59:17.041Z,887.08
2023-02-08T09:01:43.677Z,880.22
2023-02-08T09:04:11.495Z,886.70
2023-02-08T09:06:38.845Z,891.63
2023-02-08T09:09:06.391Z,902.20
2023-02-08T09:11:35.721Z,918.40
2023-02-08T09:14:04.521Z,924.22
2023-02-08T09:16:32.508Z,948.13
2023-02-08T09:19:06.615Z,952.43
2023-02-08T09:21:33.674Z,970.13
2023-02-08T09:24:04.031Z,977.78
2023-02-08T09:26:30.841Z,983.78
2023-02-08T09:28:57.553Z,999.10
2023-02-08T09:31:27.219Z,1016.05
2023-02-08T09:33:56.466Z,1025.57
2023-02-08T09:36:25.001Z,1027.25
2023-02-08T09:39:00.183Z,1040.72
2023-02-08T09:41:52.377Z,1046.75
2023-02-08T09:44:56.220Z,1046.67
2023-02-08T09:47:45.754Z,1044.63
2023-02-08T09:50:28.258Z,1048.05
2023-02-08T09:53:13.687Z,1043.38
2023-02-08T09:55:46.541Z,1039.37
2023-02-08T09:58:27.666Z,1049.33
2023-02-08T10:00:55.705Z,1049.57
2023-02-08T10:03:36.419Z,1052.95
2023-02-08T10:06:05.520Z,1053.85
2023-02-08T10:08:35.441Z,1055.00
2023-02-08T10:11:27.214Z,1063.47
2023-02-08T10:13:59.401Z,1069.80
2023-02-08T10:16:56.962Z,1071.45
2023-02-08T10:19:49.293Z,1065.50
2023-02-08T10:22:43.607Z,1069.78
2023-02-08T10:25:43.879Z,1071.03
2023-02-08T10:28:35.325Z,1077.03
2023-02-08T10:31:28.745Z,1074.22
2023-02-08T10:34:03.154Z,1080.00
2023-02-08T10:36:35.747Z,1078.50
2023-02-08T10:39:09.860Z,1073.57
2023-02-08T10:41:37.390Z,1072.35
2023-02-08T10:44:28.079Z,1068.00
2023-02-08T10:47:14.613Z,1058.47
2023-02-08T10:49:59.609Z,1062.03
2023-02-08T10:52:26.352Z,1062.65
2023-02-08T10:54:54.080Z,1063.27
2023-02-08T10:57:25.781Z,1072.88
2023-02-08T10:59:57.718Z,1076.75
2023-02-08T11:02:34.721Z,1079.20
2023-02-08T11:05:18.128Z,1078.75
2023-02-08T11:07:44.946Z,1081.32
2023-02-08T11:10:20.093Z,1071.93
2023-02-08T11:13:03.835Z,1077.43
2023-02-08T11:15:39.886Z,1077.57
2023-02-08T11:18:15.398Z,1069.13
2023-02-08T11:20:42.721Z,1057.88
2023-02-08T11:23:29.529Z,1055.32
2023-02-08T11:26:35.912Z,1059.38
2023-02-08T11:29:07.536Z,1054.10
2023-02-08T11:31:36.109Z,1053.05
2023-02-08T11:34:05.200Z,1040.22
2023-02-08T11:36:34.260Z,1016.17
2023-02-08T11:39:03.315Z,1003.55
2023-02-08T11:41:30.619Z,1001.80
2023-02-08T11:44:03.763Z,1001.15
2023-02-08T11:46:33.826Z,992.60
2023-02-08T11:49:00.986Z,987.10
2023-02-08T11:51:34.613Z,998.80
2023-02-08T11:54:02.358Z,995.83
2023-02-08T11:56:34.056Z,1004.47
2023-02-08T11:59:02.558Z,1014.25
2023-02-08T12:01:41.079Z,1022.30
2023-02-08T12:04:11.063Z,997.78
2023-02-08T12:07:11.380Z,995.92
2023-02-08T12:10:03.455Z,996.63
2023-02-08T12:12:44.949Z,999.80
2023-02-08T12:15:31.005Z,995.90
2023-02-08T12:18:16.381Z,996.92
2023-02-08T12:20:47.788Z,991.28
2023-02-08T12:23:24.262Z,994.37
2023-02-08T12:26:14.498Z,982.88
2023-02-08T12:29:13.660Z,985.42
2023-02-08T12:32:01.708Z,981.92
2023-02-08T12:35:00.725Z,987.80
2023-02-08T12:38:06.156Z,992.07
2023-02-08T12:41:02.016Z,987.10
2023-02-08T12:43:58.572Z,988.70
2023-02-08T12:46:43.792Z,975.45
2023-02-08T12:49:37.279Z,948.08
2023-02-08T12:52:14.930Z,943.60
2023-02-08T12:54:44.776Z,932.67
2023-02-08T12:57:15.598Z,928.53
2023-02-08T13:00:20.631Z,927.38
2023-02-08T13:02:57.464Z,923.08
2023-02-08T13:05:30.030Z,903.20
2023-02-08T13:08:22.502Z,897.53
2023-02-08T13:11:05.509Z,883.53
2023-02-08T13:13:37.907Z,874.38
2023-02-08T13:16:21.193Z,868.83
2023-02-08T13:18:55.555Z,857.28
2023-02-08T13:21:30.667Z,856.10
2023-02-08T13:23:58.791Z,848.92
2023-02-08T13:26:33.978Z,848.92
2023-02-08T13:29:03.116Z,850.77
2023-02-08T13:31:34.431Z,851.00
2023-02-08T13:34:02.264Z,850.60
2023-02-08T13:36:32.645Z,845.60
2023-02-08T13:39:01.360Z,847.58
2023-02-08T13:41:29.658Z,854.55
2023-02-08T13:44:01.175Z,849.65
2023-02-08T13:46:35.479Z,853.77
2023-02-08T13:49:02.122Z,861.25
2023-02-08T13:51:31.516Z,853.70
2023-02-08T13:53:58.151Z,850.35
2023-02-08T13:56:48.138Z,854.85
2023-02-08T13:59:35.135Z,849.77
2023-02-08T14:02:19.119Z,850.42
2023-02-08T14:04:47.762Z,851.20
2023-02-08T14:07:28.802Z,853.67
2023-02-08T14:10:18.802Z,851.55
2023-02-08T14:13:08.442Z,848.53
2023-02-08T14:15:38.540Z,842.47
2023-02-08T14:18:27.531Z,847.38
2023-02-08T14:21:04.460Z,846.40
2023-02-08T14:23:35.048Z,843.85
2023-02-08T14:26:10.687Z,831.50
2023-02-08T14:28:43.815Z,843.50
2023-02-08T14:31:12.805Z,842.97
2023-02-08T14:33:51.758Z,844.10
2023-02-08T14:36:29.838Z,844.35
2023-02-08T14:39:28.951Z,839.97
2023-02-08T14:42:01.157Z,843.30
2023-02-08T14:44:43.127Z,846.90
2023-02-08T14:47:36.880Z,850.45
2023-02-08T14:50:06.323Z,859.55
2023-02-08T14:52:35.406Z,858.28
2023-02-08T14:55:13.593Z,863.33
2023-02-08T14:57:41.399Z,856.40
2023-02-08T15:00:20.926Z,859.87
2023-02-08T15:02:49.155Z,852.00
2023-02-08T15:05:31.541Z,847.50
2023-02-08T15:08:03.046Z,855.13
2023-02-08T15:10:32.044Z,861.30
2023-02-08T15:13:04.037Z,851.90
2023-02-08T15:15:42.594Z,841.53
2023-02-08T15:18:20.563Z,851.10
2023-02-08T15:21:02.548Z,845.95
2023-02-08T15:23:30.624Z,833.60
2023-02-08T15:26:06.388Z,837.97
2023-02-08T15:28:36.864Z,812.25
2023-02-08T15:31:14.176Z,798.83
2023-02-08T15:33:45.386Z,790.50
2023-02-08T15:36:30.573Z,751.72
2023-02-08T15:39:00.860Z,735.40
2023-02-08T15:41:30.078Z,724.90
2023-02-08T15:44:27.836Z,718.70
2023-02-08T15:46:55.098Z,715.05
2023-02-08T15:49:34.269Z,706.93
2023-02-08T15:52:02.230Z,697.42
2023-02-08T15:54:29.249Z,697.47
2023-02-08T15:57:08.238Z,692.58
2023-02-08T15:59:38.550Z,682.63
2023-02-08T16:02:25.237Z,666.00
2023-02-08T16:04:51.983Z,675.75
2023-02-08T16:07:36.129Z,670.45
2023-02-08T16:10:04.904Z,673.70
2023-02-08T16:12:32.289Z,666.35
2023-02-08T16:14:58.942Z,648.45
2023-02-08T16:17:46.140Z,658.50
2023-02-08T16:20:31.826Z,652.00
2023-02-08T16:23:23.215Z,647.17
2023-02-08T16:25:50.938Z,642.42
2023-02-08T16:28:37.929Z,642.13
2023-02-08T16:31:05.614Z,627.42
2023-02-08T16:33:33.113Z,640.58
2023-02-08T16:36:03.668Z,630.22
2023-02-08T16:38:33.617Z,638.92
2023-02-08T16:41:12.079Z,629.53
2023-02-08T16:43:43.729Z,629.92
2023-02-08T16:46:16.600Z,624.95
2023-02-08T16:48:51.945Z,617.50
2023-02-08T16:51:23.590Z,607.35
2023-02-08T16:53:53.215Z,599.42
2023-02-08T16:56:20.049Z,597.65
2023-02-08T16:58:46.712Z,613.78
2023-02-08T17:01:14.494Z,602.97
2023-02-08T17:03:41.917Z,598.28
2023-02-08T17:06:20.629Z,588.00
2023-02-08T17:08:47.432Z,583.00
2023-02-08T17:11:14.080Z,579.97
2023-02-08T17:13:40.713Z,584.95
2023-02-08T17:16:07.411Z,585.13
2023-02-08T17:18:35.026Z,582.80
2023-02-08T17:21:02.040Z,585.33
2023-02-08T17:23:28.649Z,590.43
2023-02-08T17:25:56.569Z,589.80
2023-02-08T17:28:23.252Z,591.05
2023-02-08T17:30:50.358Z,584.45
2023-02-08T17:33:20.126Z,587.53
2023-02-08T17:35:49.358Z,584.88
2023-02-08T17:38:16.330Z,578.20
2023-02-08T17:40:44.011Z,572.05
2023-02-08T17:43:11.833Z,569.05
2023-02-08T17:45:40.367Z,581.70
2023-02-08T17:48:07.429Z,575.15
2023-02-08T17:50:34.639Z,579.53
2023-02-08T17:53:02.162Z,578.53
2023-02-08T17:55:28.842Z,582.25
2023-02-08T17:57:55.558Z,577.72
2023-02-08T18:00:23.719Z,579.22
2023-02-08T18:02:53.655Z,578.28
2023-02-08T18:05:23.842Z,579.05
2023-02-08T18:07:51.939Z,590.08
2023-02-08T18:10:19.087Z,583.88
2023-02-08T18:12:46.006Z,578.47
2023-02-08T18:15:16.916Z,582.65
2023-02-08T18:17:44.045Z,579.58
2023-02-08T18:20:14.231Z,579.17
2023-02-08T18:22:44.552Z,577.20
2023-02-08T18:25:12.379Z,575.28
2023-02-08T18:27:39.598Z,578.13
2023-02-08T18:30:07.048Z,580.35
2023-02-08T18:32:34.167Z,579.30
2023-02-08T18:35:03.516Z,577.00
2023-02-08T18:37:32.354Z,579.45
2023-02-08T18:40:00.249Z,577.35
2023-02-08T18:42:27.533Z,578.50
2023-02-08T18:44:54.249Z,582.10
2023-02-08T18:47:20.918Z,581.72
2023-02-08T18:49:47.804Z,580.35
2023-02-08T18:52:17.299Z,589.08
2023-02-08T18:54:43.936Z,586.63
2023-02-08T18:57:10.719Z,591.05
2023-02-08T18:59:38.433Z,592.40
2023-02-08T19:02:07.155Z,590.08
2023-02-08T19:04:38.204Z,589.78
2023-02-08T19:07:05.991Z,590.10
2023-02-08T19:09:36.182Z,585.73
2023-02-08T19:12:03.259Z,587.30
2023-02-08T19:14:30.185Z,582.97
2023-02-08T19:16:56.976Z,583.63
2023-02-08T19:19:23.659Z,586.40
2023-02-08T19:21:50.376Z,580.85
2023-02-08T19:24:19.442Z,578.77
2023-02-08T19:26:46.830Z,576.95
2023-02-08T19:29:16.519Z,581.53
2023-02-08T19:31:44.180Z,579.97
2023-02-08T19:34:11.594Z,579.80
2023-02-08T19:36:42.360Z,578.30
2023-02-08T19:39:09.140Z,583.90
2023-02-08T19:41:38.941Z,577.47
2023-02-08T19:44:08.075Z,578.00
2023-02-08T19:46:38.683Z,576.63
2023-02-08T19:49:06.955Z,577.07
2023-02-08T19:51:34.654Z,574.90
2023-02-08T19:54:02.291Z,576.03
2023-02-08T19:56:33.860Z,572.38
2023-02-08T19:59:03.990Z,577.13
2023-02-08T20:01:33.047Z,577.40
2023-02-08T20:04:00.478Z,581.30
2023-02-08T20:06:34.211Z,578.17
2023-02-08T20:09:01.736Z,579.67
2023-02-08T20:11:31.449Z,579.43
2023-02-08T20:13:59.748Z,577.38
2023-02-08T20:16:29.958Z,577.95
2023-02-08T20:18:58.402Z,580.95
2023-02-08T20:21:25.086Z,580.75
2023-02-08T20:23:52.185Z,582.00
2023-02-08T20:26:24.980Z,582.23
2023-02-08T20:28:55.352Z,580.35
2023-02-08T20:31:25.386Z,578.67
2023-02-08T20:33:52.326Z,577.55
2023-02-08T20:36:21.922Z,579.95
2023-02-08T20:38:49.281Z,578.53
2023-02-08T20:41:17.243Z,583.72
2023-02-08T20:43:44.950Z,579.00
2023-02-08T20:46:38.739Z,578.28
2023-02-08T20:49:07.245Z,577.78
2023-02-08T20:51:34.888Z,579.63
2023-02-08T20:54:02.946Z,574.40
2023-02-08T20:56:35.806Z,582.08
2023-02-08T20:59:08.818Z,578.53
2023-02-08T21:01:36.328Z,579.13
2023-02-08T21:04:04.123Z,574.28
2023-02-08T21:06:33.487Z,574.28
2023-02-08T21:09:04.515Z,569.40
2023-02-08T21:11:32.471Z,570.85
2023-02-08T21:14:00.189Z,570.15
2023-02-08T21:16:27.661Z,573.23
2023-02-08T21:18:54.997Z,744.83
2023-02-08T21:21:21.659Z,572.25
2023-02-08T21:23:48.516Z,572.72
2023-02-08T21:26:17.811Z,591.25
2023-02-08T21:28:45.185Z,577.30
2023-02-08T21:31:19.633Z,576.67
2023-02-08T21:33:46.636Z,572.47
2023-02-08T21:36:15.537Z,575.85
2023-02-08T21:38:43.067Z,576.90
2023-02-08T21:41:13.039Z,586.60
2023-02-08T21:43:39.754Z,577.53
2023-02-08T21:46:08.049Z,591.25
2023-02-08T21:48:55.545Z,576.03
2023-02-08T21:51:42.523Z,574.70
2023-02-08T21:54:34.407Z,582.42
2023-02-08T21:57:03.431Z,581.92
2023-02-08T21:59:35.142Z,586.47
2023-02-08T22:02:01.863Z,572.55
2023-02-08T22:04:28.626Z,577.50
2023-02-08T22:06:55.304Z,585.47
2023-02-08T22:09:21.935Z,577.95
2023-02-08T22:11:49.117Z,576.67
2023-02-08T22:14:17.376Z,576.45
2023-02-08T22:16:44.035Z,571.00
2023-02-08T22:19:10.703Z,570.60
2023-02-08T22:21:37.421Z,572.67
2023-02-08T22:24:04.212Z,571.70
2023-02-08T22:26:30.939Z,573.77
2023-02-08T22:28:57.609Z,574.67
2023-02-08T22:31:24.489Z,571.73
2023-02-08T22:33:54.765Z,570.58
2023-02-08T22:36:21.485Z,566.30
2023-02-08T22:38:48.223Z,563.85
2023-02-08T22:41:16.609Z,568.92
2023-02-08T22:43:43.419Z,568.53
2023-02-08T22:46:10.141Z,569.13
2023-02-08T22:48:36.916Z,565.13
2023-02-08T22:51:12.870Z,563.72
2023-02-08T22:53:39.667Z,557.17
2023-02-08T22:56:06.889Z,555.38
2023-02-08T22:58:33.756Z,561.75
2023-02-08T23:01:00.354Z,560.00
2023-02-08T23:03:27.276Z,560.05
2023-02-08T23:05:53.993Z,557.38
2023-02-08T23:08:22.016Z,555.95
2023-02-08T23:10:48.772Z,554.38
2023-02-08T23:13:15.428Z,554.30
2023-02-08T23:15:44.161Z,546.13
2023-02-08T23:18:11.099Z,553.90
2023-02-08T23:20:41.053Z,559.83
2023-02-08T23:23:08.006Z,557.92
2023-02-08T23:25:37.726Z,561.50
2023-02-08T23:28:04.428Z,558.17
2023-02-08T23:30:31.064Z,556.85
2023-02-08T23:32:57.682Z,558.53
2023-02-08T23:35:24.445Z,554.63
2023-02-08T23:37:51.102Z,552.63
2023-02-08T23:40:18.031Z,556.60
2023-02-08T23:42:44.691Z,556.72
2023-02-08T23:45:11.523Z,557.53
2023-02-08T23:47:39.336Z,559.30
2023-02-08T23:50:07.780Z,557.13
2023-02-08T23:52:35.752Z,558.80
2023-02-08T23:55:03.876Z,557.95
2023-02-08T23:57:35.524Z,554.03
